createdAt,value
2022-08-20T00:01:12.523Z,4.71
2022-08-20T00:03:44.620Z,4.47
2022-08-20T00:06:12.580Z,4.74
2022-08-20T00:16:12.665Z,4.8
2022-08-20T00:18:42.712Z,4.63
2022-08-20T00:21:12.720Z,4.22
2022-08-20T00:23:42.755Z,4.67
2022-08-20T00:26:12.757Z,4.43
2022-08-20T00:28:42.807Z,4.32
2022-08-20T00:33:42.856Z,4.37
2022-08-20T00:36:12.856Z,4.56
2022-08-20T00:38:42.897Z,4.42
2022-08-20T00:43:42.941Z,4.18
2022-08-20T00:46:12.959Z,4.41
2022-08-20T00:51:13.019Z,4.29
2022-08-20T00:53:43.088Z,3.97
2022-08-20T00:56:13.051Z,4.3
2022-08-20T01:01:13.109Z,4.24
2022-08-20T01:03:43.120Z,4
2022-08-20T01:06:13.141Z,4.33
2022-08-20T01:08:43.188Z,4.21
2022-08-20T01:11:13.219Z,3.9
2022-08-20T01:16:13.254Z,4.12
2022-08-20T01:18:43.261Z,4.09
2022-08-20T01:21:13.288Z,4.61
2022-08-20T01:26:13.351Z,3.79
2022-08-20T01:28:43.359Z,3.99
2022-08-20T01:31:13.411Z,4.09
2022-08-20T01:33:44.168Z,4.17
2022-08-20T01:36:13.434Z,3.86
2022-08-20T01:41:13.484Z,3.97
2022-08-20T01:43:43.502Z,3.43
2022-08-20T01:51:13.566Z,3.47
2022-08-20T01:53:43.609Z,3.64
2022-08-20T01:56:13.641Z,3.73
2022-08-20T01:58:43.649Z,3.56
2022-08-20T02:01:13.736Z,3.82
2022-08-20T02:03:44.787Z,3.92
2022-08-20T02:06:13.729Z,3.51
2022-08-20T02:11:13.780Z,4.24
2022-08-20T02:13:43.800Z,4.29
2022-08-20T02:18:43.828Z,3.66
2022-08-20T02:21:13.891Z,3.68
2022-08-20T02:23:43.888Z,3.89
2022-08-20T02:31:13.970Z,4.04
2022-08-20T02:33:43.971Z,4.03
2022-08-20T02:36:14.012Z,3.85
2022-08-20T02:41:14.059Z,3.34
2022-08-20T02:43:44.083Z,4.13
2022-08-20T02:48:44.135Z,3.85
2022-08-20T02:53:44.177Z,3.84
2022-08-20T02:56:14.182Z,3.48
2022-08-20T02:58:44.233Z,3.6
2022-08-20T03:01:14.260Z,3.47
2022-08-20T03:03:44.266Z,3.51
2022-08-20T03:06:14.294Z,3.3
2022-08-20T03:08:44.318Z,3.48
2022-08-20T03:11:14.345Z,3.73
2022-08-20T03:13:44.360Z,3.52
2022-08-20T03:16:14.388Z,4.01
2022-08-20T03:18:44.408Z,3.71
2022-08-20T03:21:14.721Z,3.56
2022-08-20T03:23:44.468Z,3.55
2022-08-20T03:31:14.789Z,3.8
2022-08-20T03:33:48.886Z,3.47
2022-08-20T03:36:14.583Z,3.48
2022-08-20T03:38:44.603Z,3.93
2022-08-20T03:41:14.623Z,4.38
2022-08-20T03:43:44.671Z,3.87
2022-08-20T03:46:23.610Z,3.86
2022-08-20T03:48:44.862Z,4.25
2022-08-20T03:51:14.699Z,3.96
2022-08-20T03:53:44.734Z,3.88
2022-08-20T03:56:14.769Z,3.97
2022-08-20T03:58:44.791Z,3.85
2022-08-20T04:01:45.647Z,3.57
2022-08-20T04:03:44.828Z,3.5
2022-08-20T04:06:14.861Z,3.07
2022-08-20T04:11:14.915Z,2.57
2022-08-20T04:16:15.266Z,2.48
2022-08-20T04:19:01.617Z,2.54
2022-08-20T04:21:15.045Z,2.54
2022-08-20T04:23:45.022Z,2.91
2022-08-20T04:26:15.047Z,3.46
2022-08-20T04:28:45.063Z,3.39
2022-08-20T04:31:15.077Z,3.24
2022-08-20T04:33:45.101Z,3.46
2022-08-20T04:41:22.884Z,3.38
2022-08-20T04:43:45.203Z,3.38
2022-08-20T04:46:15.217Z,3.37
2022-08-20T04:48:49.194Z,3.8
2022-08-20T04:53:52.117Z,3.67
2022-08-20T04:56:15.311Z,2.96
2022-08-20T05:01:15.442Z,2.93
2022-08-20T05:03:45.382Z,3.12
2022-08-20T05:06:15.401Z,3.44
2022-08-20T05:08:45.483Z,3.19
2022-08-20T05:11:34.559Z,3.24
2022-08-20T05:13:45.489Z,3.27
2022-08-20T05:16:15.504Z,3.15
2022-08-20T05:18:45.539Z,4.04
2022-08-20T05:21:15.691Z,3.74
2022-08-20T05:23:45.584Z,3.46
2022-08-20T05:28:52.796Z,3.57
2022-08-20T05:31:15.664Z,3.89
2022-08-20T05:33:45.671Z,3.63
2022-08-20T05:36:15.689Z,3.82
2022-08-20T05:38:49.693Z,3.66
2022-08-20T05:41:29.436Z,3.65
2022-08-20T05:43:45.775Z,4
2022-08-20T05:46:15.976Z,3.69
2022-08-20T05:51:15.830Z,3.84
2022-08-20T05:56:15.879Z,4.07
2022-08-20T06:01:15.994Z,3.72
2022-08-20T06:03:45.958Z,4.11
2022-08-20T06:06:18.300Z,3.63
2022-08-20T06:08:46.020Z,3.73
2022-08-20T06:11:16.016Z,3.54
2022-08-20T06:13:46.062Z,3.59
2022-08-20T06:16:16.073Z,3.75
2022-08-20T06:18:46.117Z,3.57
2022-08-20T06:21:16.144Z,3.42
2022-08-20T06:23:58.042Z,3.44
2022-08-20T06:28:46.196Z,3.51
2022-08-20T06:31:16.248Z,3.02
2022-08-20T06:33:46.243Z,3.14
2022-08-20T06:36:18.004Z,3.03
2022-08-20T06:41:16.308Z,2.56
2022-08-20T06:43:46.319Z,2.4
2022-08-20T06:46:16.382Z,2.88
2022-08-20T06:48:46.368Z,2.74
2022-08-20T06:53:46.430Z,2.99
2022-08-20T06:58:46.478Z,1.92
2022-08-20T07:01:16.570Z,1.98
2022-08-20T07:03:55.779Z,2.01
2022-08-20T07:06:16.532Z,2.16
2022-08-20T07:08:46.567Z,2.12
2022-08-20T07:11:16.594Z,2.13
2022-08-20T07:13:46.636Z,2.53
2022-08-20T07:16:16.639Z,2.46
2022-08-20T07:18:46.676Z,2.42
2022-08-20T07:21:16.668Z,2.18
2022-08-20T07:23:46.721Z,1.98
2022-08-20T07:26:16.749Z,1.98
2022-08-20T07:28:46.741Z,1.79
2022-08-20T07:31:16.770Z,1.75
2022-08-20T07:33:46.790Z,1.57
2022-08-20T07:38:46.856Z,1.72
2022-08-20T07:41:16.855Z,1.69
2022-08-20T07:46:16.911Z,1.27
2022-08-20T07:48:47.113Z,1.34
2022-08-20T07:51:16.973Z,1.32
2022-08-20T07:53:46.983Z,1.45
2022-08-20T07:56:17.022Z,1.25
2022-08-20T07:58:47.044Z,1.3
2022-08-20T08:01:17.114Z,1.2
2022-08-20T08:03:50.098Z,1.05
2022-08-20T08:06:19.675Z,1.2
2022-08-20T08:08:47.127Z,1.35
2022-08-20T08:11:17.144Z,1.04
2022-08-20T08:16:17.201Z,1.2
2022-08-20T08:18:47.220Z,1.19
2022-08-20T08:21:17.272Z,1.04
2022-08-20T08:23:47.263Z,1.03
2022-08-20T08:28:47.311Z,1.83
2022-08-20T08:33:47.391Z,1.26
2022-08-20T08:38:47.417Z,0.94
2022-08-20T08:43:47.468Z,0.92
2022-08-20T08:48:47.513Z,0.95
2022-08-20T08:51:17.527Z,0.85
2022-08-20T08:53:47.558Z,0.85
2022-08-20T08:56:17.571Z,0.86
2022-08-20T08:58:47.613Z,0.94
2022-08-20T09:01:54.211Z,1.09
2022-08-20T09:03:47.647Z,1.31
2022-08-20T09:06:17.669Z,1.87
2022-08-20T09:08:47.689Z,1.34
2022-08-20T09:11:17.723Z,1.2
2022-08-20T09:13:47.758Z,1.11
2022-08-20T09:23:47.832Z,1.19
2022-08-20T09:26:17.869Z,1.83
2022-08-20T09:28:52.119Z,1.25
2022-08-20T09:33:47.950Z,1.59
2022-08-20T09:36:31.719Z,1.65
2022-08-20T09:38:48.002Z,1.56
2022-08-20T09:41:17.999Z,1.27
2022-08-20T09:43:48.033Z,1.48
2022-08-20T09:46:18.056Z,1.4
2022-08-20T09:51:18.097Z,1.55
2022-08-20T09:56:18.136Z,1.51
2022-08-20T09:58:48.173Z,1.73
2022-08-20T10:06:18.236Z,1.29
2022-08-20T10:08:48.262Z,1.54
2022-08-20T10:11:18.290Z,1.38
2022-08-20T10:13:48.303Z,1.35
2022-08-20T10:18:48.339Z,1.17
2022-08-20T10:21:18.358Z,1.39
2022-08-20T10:23:48.392Z,1.36
2022-08-20T10:26:18.431Z,1.16
2022-08-20T10:36:18.501Z,1.26
2022-08-20T10:38:48.631Z,1.48
2022-08-20T10:43:48.576Z,1.34
2022-08-20T10:48:48.633Z,1.09
2022-08-20T10:53:48.698Z,1.16
2022-08-20T10:56:18.704Z,1.35
2022-08-20T10:58:48.711Z,1.19
2022-08-20T11:03:48.768Z,0.94
2022-08-20T11:06:18.793Z,0.93
2022-08-20T11:08:48.829Z,1.1
2022-08-20T11:13:48.888Z,1.13
2022-08-20T11:16:18.886Z,1.04
2022-08-20T11:18:48.920Z,1.03
2022-08-20T11:26:18.966Z,0.96
2022-08-20T11:31:19.020Z,0.99
2022-08-20T11:33:49.060Z,1.1
2022-08-20T11:36:19.076Z,1.01
2022-08-20T11:46:19.175Z,1.23
2022-08-20T11:48:49.223Z,1.1
2022-08-20T11:51:19.224Z,1.09
2022-08-20T11:53:49.248Z,1.09
2022-08-20T11:56:19.249Z,1.15
2022-08-20T11:58:49.269Z,1.05
2022-08-20T12:03:49.329Z,0.93
2022-08-20T12:06:19.348Z,1.23
2022-08-20T12:08:49.389Z,1.2
2022-08-20T12:11:19.400Z,1.4
2022-08-20T12:16:19.455Z,1.15
2022-08-20T12:18:49.482Z,1.16
2022-08-20T12:23:49.536Z,1.28
2022-08-20T12:26:19.537Z,1.09
2022-08-20T12:28:49.583Z,1.11
2022-08-20T12:31:19.591Z,1.08
2022-08-20T12:33:49.611Z,1.07
2022-08-20T12:36:19.650Z,1.25
2022-08-20T12:38:49.665Z,1.14
2022-08-20T12:43:49.776Z,1.27
2022-08-20T12:46:20.131Z,2.67
2022-08-20T12:48:49.765Z,1.74
2022-08-20T12:53:49.812Z,1.46
2022-08-20T12:56:19.818Z,1.26
2022-08-20T12:58:49.849Z,1.14
2022-08-20T13:01:19.941Z,0.98
2022-08-20T13:06:19.921Z,1.04
2022-08-20T13:13:52.048Z,1.26
2022-08-20T13:16:20.007Z,1.21
2022-08-20T13:21:23.421Z,0.92
2022-08-20T13:23:50.090Z,1.06
2022-08-20T13:26:20.104Z,1.27
2022-08-20T13:41:20.400Z,1.06
2022-08-20T13:43:50.300Z,1.18
2022-08-20T13:46:20.300Z,1.31
2022-08-20T13:48:50.314Z,1.27
2022-08-20T13:53:50.375Z,1.53
2022-08-20T13:56:20.397Z,1.39
2022-08-20T13:58:50.418Z,1.29
2022-08-20T14:03:50.460Z,1.39
2022-08-20T14:06:20.471Z,1.18
2022-08-20T14:08:50.502Z,1.19
2022-08-20T14:11:20.522Z,1.39
2022-08-20T14:18:52.869Z,1.59
2022-08-20T14:21:20.613Z,1.42
2022-08-20T14:28:50.699Z,1.33
2022-08-20T14:31:20.715Z,1.22
2022-08-20T14:33:50.742Z,1.63
2022-08-20T14:36:20.764Z,1.49
2022-08-20T14:38:50.782Z,1.27
2022-08-20T14:41:20.807Z,1.19
2022-08-20T14:46:20.884Z,1.61
2022-08-20T14:56:20.947Z,1.31
2022-08-20T14:58:50.984Z,1.53
2022-08-20T15:01:21.061Z,1.39
2022-08-20T15:06:21.913Z,1.34
2022-08-20T15:08:51.074Z,1.41
2022-08-20T15:11:21.105Z,1.34
2022-08-20T15:13:51.133Z,2.14
2022-08-20T15:16:21.150Z,1.82
2022-08-20T15:18:51.177Z,1.7
2022-08-20T15:21:21.983Z,1.6
2022-08-20T15:23:51.226Z,1.59
2022-08-20T15:26:21.251Z,1.81
2022-08-20T15:28:51.285Z,1.61
2022-08-20T15:31:21.312Z,1.5
2022-08-20T15:33:51.322Z,1.51
2022-08-20T15:36:21.344Z,1.71
2022-08-20T15:41:21.384Z,1.74
2022-08-20T15:43:51.410Z,1.85
2022-08-20T15:46:21.442Z,1.61
2022-08-20T15:48:51.469Z,1.43
2022-08-20T15:51:21.475Z,1.55
2022-08-20T15:53:51.521Z,1.64
2022-08-20T15:56:21.547Z,1.48
2022-08-20T15:58:51.553Z,1.39
2022-08-20T16:01:25.185Z,1.45
2022-08-20T16:03:51.625Z,1.36
2022-08-20T16:06:21.625Z,1.55
2022-08-20T16:08:51.678Z,1.37
2022-08-20T16:11:21.705Z,1.56
2022-08-20T16:16:21.732Z,2.44
2022-08-20T16:18:51.746Z,2.29
2022-08-20T16:21:21.792Z,1.97
2022-08-20T16:23:51.802Z,2.04
2022-08-20T16:26:21.835Z,1.75
2022-08-20T16:28:51.843Z,2.26
2022-08-20T16:31:21.930Z,1.74
2022-08-20T16:33:51.896Z,1.72
2022-08-20T16:36:21.936Z,1.42
2022-08-20T16:38:51.943Z,1.56
2022-08-20T16:41:21.986Z,1.61
2022-08-20T16:43:52.009Z,1.33
2022-08-20T16:46:22.031Z,1.62
2022-08-20T16:48:52.066Z,1.52
2022-08-20T16:51:22.077Z,1.52
2022-08-20T16:56:22.117Z,1.86
2022-08-20T16:58:52.140Z,2.18
2022-08-20T17:01:22.258Z,1.81
2022-08-20T17:03:52.212Z,1.79
2022-08-20T17:08:52.247Z,1.54
2022-08-20T17:11:22.279Z,1.84
2022-08-20T17:13:52.301Z,1.51
2022-08-20T17:16:22.311Z,1.5
2022-08-20T17:18:52.340Z,1.52
2022-08-20T17:21:22.379Z,1.51
2022-08-20T17:23:56.384Z,1.45
2022-08-20T17:26:22.427Z,1.63
2022-08-20T17:28:52.437Z,1.59
2022-08-20T17:31:22.475Z,1.8
2022-08-20T17:33:52.504Z,1.69
2022-08-20T17:36:22.517Z,1.5
2022-08-20T17:38:52.536Z,1.55
2022-08-20T17:41:22.569Z,1.5
2022-08-20T17:43:52.597Z,1.29
2022-08-20T17:48:52.638Z,1.34
2022-08-20T17:51:22.675Z,1.34
2022-08-20T17:53:52.687Z,1.35
2022-08-20T17:56:22.717Z,1.48
2022-08-20T17:58:54.872Z,1.58
2022-08-20T18:01:22.853Z,1.54
2022-08-20T18:03:52.808Z,1.65
2022-08-20T18:06:25.323Z,1.27
2022-08-20T18:08:52.843Z,1.19
2022-08-20T18:11:22.883Z,1.48
2022-08-20T18:13:52.890Z,1.44
2022-08-20T18:16:22.907Z,1.72
2022-08-20T18:18:57.090Z,1.81
2022-08-20T18:21:22.938Z,2.29
2022-08-20T18:23:52.985Z,2.01
2022-08-20T18:26:23.005Z,2.05
2022-08-20T18:28:53.034Z,1.66
2022-08-20T18:31:23.111Z,1.47
2022-08-20T18:33:53.101Z,1.81
2022-08-20T18:36:23.132Z,1.78
2022-08-20T18:38:53.128Z,1.61
2022-08-20T18:41:23.131Z,2.92
2022-08-20T18:43:53.173Z,2
2022-08-20T18:46:23.540Z,1.65
2022-08-20T18:48:53.219Z,1.56
2022-08-20T18:53:53.274Z,1.39
2022-08-20T18:56:23.298Z,1.3
2022-08-20T18:58:53.301Z,1.73
2022-08-20T19:01:23.438Z,1.95
2022-08-20T19:03:53.365Z,1.72
2022-08-20T19:06:23.396Z,1.56
2022-08-20T19:08:53.417Z,1.51
2022-08-20T19:11:23.420Z,1.49
2022-08-20T19:16:23.489Z,1.82
2022-08-20T19:18:53.500Z,2.03
2022-08-20T19:21:23.544Z,1.75
2022-08-20T19:23:53.544Z,1.57
2022-08-20T19:26:25.235Z,1.85
2022-08-20T19:28:53.590Z,1.69
2022-08-20T19:36:24.270Z,1.47
2022-08-20T19:38:53.684Z,1.36
2022-08-20T19:41:30.961Z,1.82
2022-08-20T19:46:23.777Z,1.72
2022-08-20T19:51:23.813Z,1.66
2022-08-20T19:53:53.827Z,2.09
2022-08-20T19:56:23.859Z,1.92
2022-08-20T19:58:53.893Z,2.13
2022-08-20T20:01:23.925Z,1.82
2022-08-20T20:03:53.947Z,1.7
2022-08-20T20:06:23.964Z,1.77
2022-08-20T20:08:53.985Z,3.62
2022-08-20T20:11:24.001Z,2.34
2022-08-20T20:16:24.056Z,1.85
2022-08-20T20:19:15.555Z,2.05
2022-08-20T20:21:24.110Z,2.23
2022-08-20T20:23:54.118Z,2.02
2022-08-20T20:26:24.153Z,1.92
2022-08-20T20:36:24.228Z,1.86
2022-08-20T20:38:54.255Z,1.68
2022-08-20T20:41:24.299Z,1.87
2022-08-20T20:43:54.316Z,1.84
2022-08-20T20:46:24.344Z,1.64
2022-08-20T20:48:54.356Z,1.38
2022-08-20T20:51:24.386Z,1.54
2022-08-20T20:58:55.820Z,1.72
2022-08-20T21:08:54.563Z,1.87
2022-08-20T21:11:24.579Z,2.04
2022-08-20T21:16:24.615Z,1.76
2022-08-20T21:18:54.652Z,1.84
2022-08-20T21:21:24.674Z,1.75
2022-08-20T21:23:54.677Z,2.15
2022-08-20T21:26:24.710Z,2.16
2022-08-20T21:28:54.726Z,2.04
2022-08-20T21:31:24.766Z,2.6
2022-08-20T21:33:54.788Z,2.69
2022-08-20T21:36:24.807Z,2.49
2022-08-20T21:38:54.830Z,2.58
2022-08-20T21:41:29.466Z,2.63
2022-08-20T21:43:54.885Z,2.66
2022-08-20T21:51:24.953Z,2.21
2022-08-20T21:56:25.004Z,2.51
2022-08-20T22:01:25.093Z,2.3
2022-08-20T22:03:55.064Z,2.42
2022-08-20T22:06:25.067Z,3.25
2022-08-20T22:08:55.103Z,2.72
2022-08-20T22:11:25.121Z,2.51
2022-08-20T22:16:25.174Z,2.71
2022-08-20T22:18:55.188Z,3.53
2022-08-20T22:21:25.225Z,3.34
2022-08-20T22:23:55.254Z,2.87
2022-08-20T22:28:55.285Z,2.78
2022-08-20T22:31:25.309Z,3.08
2022-08-20T22:41:25.423Z,2.58
2022-08-20T22:43:55.942Z,2.62
2022-08-20T22:46:26.847Z,2.83
2022-08-20T22:53:55.681Z,2.23
2022-08-20T22:58:55.571Z,2.19
2022-08-20T23:01:25.746Z,2.06
2022-08-20T23:06:25.659Z,1.97
2022-08-20T23:08:55.673Z,2.21
2022-08-20T23:11:26.404Z,2.54
2022-08-20T23:18:55.764Z,2.05
2022-08-20T23:23:55.813Z,1.71
2022-08-20T23:26:25.853Z,1.61
2022-08-20T23:28:55.868Z,1.57
2022-08-20T23:31:25.876Z,1.64
2022-08-20T23:36:25.937Z,1.76
2022-08-20T23:38:55.955Z,1.72
2022-08-20T23:41:25.977Z,1.76
2022-08-20T23:43:56.021Z,1.56
2022-08-20T23:51:26.091Z,1.82
2022-08-20T23:53:56.102Z,2.15
2022-08-20T23:58:56.149Z,2.53
